createdAt,value
2023-03-28T00:00:48.323Z,102342.91
2023-03-28T00:05:55.101Z,102356.09
2023-03-28T00:11:05.728Z,102347.34
2023-03-28T00:16:12.746Z,102348.38
2023-03-28T00:21:24.206Z,102347.63
2023-03-28T00:26:27.134Z,102356.34
2023-03-28T00:31:32.072Z,102362.44
2023-03-28T00:36:39.660Z,102362.59
2023-03-28T00:41:44.162Z,102364.44
2023-03-28T00:46:46.820Z,102353.41
2023-03-28T00:51:57.833Z,102368.34
2023-03-28T00:57:03.034Z,102359.63
2023-03-28T01:02:07.110Z,102363.97
2023-03-28T01:07:11.206Z,102335.59
2023-03-28T01:12:17.306Z,102188.31
2023-03-28T01:17:21.089Z,102370.13
2023-03-28T01:23:03.815Z,101993.91
2023-03-28T01:28:16.305Z,102355.53
2023-03-28T01:33:44.391Z,102275.03
2023-03-28T01:38:55.760Z,102351.25
2023-03-28T01:44:09.599Z,102352.13
2023-03-28T01:49:23.115Z,102353.19
2023-03-28T01:54:33.151Z,102140.41
2023-03-28T01:59:42.675Z,102348.84
2023-03-28T02:05:05.393Z,102296.00
2023-03-28T02:10:16.162Z,102336.56
2023-03-28T02:15:41.939Z,102296.00
2023-03-28T02:21:24.511Z,102346.41
2023-03-28T02:26:43.120Z,102342.94
2023-03-28T02:31:57.916Z,102260.69
2023-03-28T02:37:10.477Z,102252.13
2023-03-28T02:42:56.127Z,102333.47
2023-03-28T02:48:11.803Z,102335.25
2023-03-28T02:53:22.233Z,102226.22
2023-03-28T02:58:31.626Z,102248.91
2023-03-28T03:03:36.371Z,102325.13
2023-03-28T03:08:39.195Z,102277.44
2023-03-28T03:13:47.425Z,102312.09
2023-03-28T03:18:50.742Z,102330.25
2023-03-28T03:23:55.897Z,102221.19
2023-03-28T03:29:01.418Z,102333.81
2023-03-28T03:34:04.900Z,102192.59
2023-03-28T03:39:16.205Z,102339.91
2023-03-28T03:44:21.202Z,102299.19
2023-03-28T03:49:24.030Z,102255.78
2023-03-28T03:54:27.286Z,102339.16
2023-03-28T03:59:31.694Z,102343.41
2023-03-28T04:04:35.053Z,102349.44
2023-03-28T04:10:03.161Z,102357.34
2023-03-28T04:15:12.755Z,101923.03
2023-03-28T04:20:15.445Z,102324.59
2023-03-28T04:25:50.716Z,102353.19
2023-03-28T04:31:04.295Z,102282.16
2023-03-28T04:36:25.849Z,102348.78
2023-03-28T04:41:38.858Z,102355.84
2023-03-28T04:46:59.240Z,102319.53
2023-03-28T04:52:02.097Z,102281.47
2023-03-28T04:57:08.085Z,102367.34
2023-03-28T05:03:09.754Z,102370.81
2023-03-28T05:08:26.171Z,102327.50
2023-03-28T05:13:40.546Z,102325.63
2023-03-28T05:18:57.313Z,102386.38
2023-03-28T05:24:23.697Z,102358.63
2023-03-28T05:29:27.658Z,102359.50
2023-03-28T05:34:31.060Z,102338.75
2023-03-28T05:39:36.204Z,102385.56
2023-03-28T05:44:50.375Z,101859.22
2023-03-28T05:50:14.968Z,101953.53
2023-03-28T05:55:20.861Z,102234.72
2023-03-28T06:00:26.093Z,102397.56
2023-03-28T06:05:31.520Z,102398.38
2023-03-28T06:10:35.698Z,102166.16
2023-03-28T06:15:54.762Z,102402.63
2023-03-28T06:21:06.144Z,102351.47
2023-03-28T06:26:10.501Z,102383.53
2023-03-28T06:31:19.708Z,102387.91
2023-03-28T06:36:23.028Z,102422.38
2023-03-28T06:41:27.893Z,102166.91
2023-03-28T06:46:30.828Z,102117.41
2023-03-28T06:51:35.072Z,102423.03
2023-03-28T06:56:39.183Z,102428.25
2023-03-28T07:01:42.253Z,102308.59
2023-03-28T07:06:50.404Z,102321.44
2023-03-28T07:11:54.526Z,102426.19
2023-03-28T07:16:58.842Z,102425.78
2023-03-28T07:22:02.700Z,102424.13
2023-03-28T07:27:15.510Z,102422.94
2023-03-28T07:32:21.212Z,102407.13
2023-03-28T07:37:25.317Z,102436.53
2023-03-28T07:42:43.900Z,102415.38
2023-03-28T07:48:04.189Z,102421.44
2023-03-28T07:53:07.046Z,102436.75
2023-03-28T07:58:20.036Z,102426.09
2023-03-28T08:03:24.203Z,102456.09
2023-03-28T08:08:27.365Z,102466.59
2023-03-28T08:14:00.114Z,102471.06
2023-03-28T08:19:11.420Z,102328.16
2023-03-28T08:24:46.883Z,102451.56
2023-03-28T08:29:57.766Z,102460.16
2023-03-28T08:35:03.732Z,102456.47
2023-03-28T08:40:10.863Z,102467.63
2023-03-28T08:45:34.925Z,102403.94
2023-03-28T08:50:42.596Z,102378.50
2023-03-28T08:55:47.421Z,102355.03
2023-03-28T09:00:53.235Z,102428.22
2023-03-28T09:06:05.745Z,102456.84
2023-03-28T09:11:26.625Z,102394.84
2023-03-28T09:16:42.738Z,102435.97
2023-03-28T09:22:15.206Z,102436.31
2023-03-28T09:27:29.033Z,102402.31
2023-03-28T09:32:41.224Z,102395.75
2023-03-28T09:37:49.655Z,102155.56
2023-03-28T09:43:06.498Z,102432.47
2023-03-28T09:48:24.171Z,102425.31
2023-03-28T09:53:38.332Z,102413.19
2023-03-28T09:58:50.360Z,102407.13
2023-03-28T10:04:11.684Z,102374.34
2023-03-28T10:09:49.560Z,102396.53
2023-03-28T10:14:56.386Z,102330.19
2023-03-28T10:20:28.654Z,102340.88
2023-03-28T10:25:39.313Z,102295.63
2023-03-28T10:30:42.814Z,102306.97
2023-03-28T10:35:55.670Z,102296.94
2023-03-28T10:41:06.594Z,102379.41
2023-03-28T10:46:24.915Z,102358.66
2023-03-28T10:51:46.841Z,102367.31
2023-03-28T10:56:54.235Z,102365.38
2023-03-28T11:02:17.758Z,102353.44
2023-03-28T11:07:29.422Z,102346.00
2023-03-28T11:13:08.443Z,102206.34
2023-03-28T11:18:29.995Z,102324.88
2023-03-28T11:23:46.454Z,102274.47
2023-03-28T11:29:33.198Z,102247.09
2023-03-28T11:34:51.782Z,102277.66
2023-03-28T11:40:06.088Z,102278.66
2023-03-28T11:45:53.350Z,102268.88
2023-03-28T11:51:07.470Z,102269.59
2023-03-28T11:56:48.360Z,102217.56
2023-03-28T12:02:05.199Z,102266.78
2023-03-28T12:07:18.802Z,102223.38
2023-03-28T12:12:32.206Z,101805.41
2023-03-28T12:17:40.353Z,102221.31
2023-03-28T12:22:57.687Z,102035.97
2023-03-28T12:28:28.701Z,102196.22
2023-03-28T12:33:43.312Z,102205.47
2023-03-28T12:39:01.618Z,102121.50
2023-03-28T12:44:15.316Z,102179.31
2023-03-28T12:49:33.015Z,102078.34
2023-03-28T12:55:01.418Z,102136.91
2023-03-28T13:00:37.279Z,102149.03
2023-03-28T13:06:12.767Z,102140.81
2023-03-28T13:11:36.892Z,102149.88
2023-03-28T13:16:47.632Z,102114.03
2023-03-28T13:21:57.454Z,102020.88
2023-03-28T13:27:04.448Z,101869.47
2023-03-28T13:32:16.842Z,101878.59
2023-03-28T13:37:23.504Z,101895.56
2023-03-28T13:42:32.482Z,101950.69
2023-03-28T13:47:41.963Z,102095.78
2023-03-28T13:52:44.968Z,102091.66
2023-03-28T13:57:50.303Z,102090.88
2023-03-28T14:03:04.222Z,101951.44
2023-03-28T14:08:39.919Z,101880.59
2023-03-28T14:13:44.199Z,101962.44
2023-03-28T14:18:54.631Z,101558.88
2023-03-28T14:24:02.228Z,102018.06
2023-03-28T14:29:11.311Z,101839.88
2023-03-28T14:34:34.995Z,101943.03
2023-03-28T14:39:47.305Z,101663.25
2023-03-28T14:44:53.019Z,101810.38
2023-03-28T14:49:58.553Z,101913.34
2023-03-28T14:55:02.477Z,101978.09
2023-03-28T15:00:15.156Z,101757.75
2023-03-28T15:05:23.012Z,101869.09
2023-03-28T15:10:27.017Z,101679.41
2023-03-28T15:15:44.306Z,101797.16
2023-03-28T15:20:52.680Z,101634.34
2023-03-28T15:25:57.134Z,101544.19
2023-03-28T15:31:04.811Z,101817.34
2023-03-28T15:36:16.483Z,101852.19
2023-03-28T15:41:23.609Z,101886.25
2023-03-28T15:46:31.887Z,101707.25
2023-03-28T15:51:48.967Z,101760.75
2023-03-28T15:56:52.415Z,101856.41
2023-03-28T16:02:21.143Z,101647.22
2023-03-28T16:07:55.804Z,101773.97
2023-03-28T16:13:08.575Z,101607.31
2023-03-28T16:36:14.138Z,101813.38
2023-03-28T16:41:40.394Z,101532.06
2023-03-28T16:46:51.991Z,101698.72
2023-03-28T16:58:08.387Z,101761.00
2023-03-28T17:03:42.258Z,101471.94
2023-03-28T17:08:54.786Z,101615.91
2023-03-28T17:14:31.928Z,101511.78
2023-03-28T17:20:32.821Z,101611.78
2023-03-28T17:28:22.746Z,101789.34
2023-03-28T17:33:16.218Z,101797.25
2023-03-28T17:38:29.281Z,101695.16
2023-03-28T17:43:33.901Z,101779.97
2023-03-28T17:48:39.998Z,101477.16
2023-03-28T17:53:47.839Z,101570.13
2023-03-28T17:58:52.036Z,101456.00
2023-03-28T18:03:57.276Z,101773.66
2023-03-28T18:09:45.302Z,101366.59
2023-03-28T18:28:34.873Z,101380.56
2023-03-28T18:33:49.002Z,101620.19
2023-03-28T18:39:42.753Z,101133.47
2023-03-28T18:44:56.702Z,101624.41
2023-03-28T18:50:13.198Z,101546.22
2023-03-28T18:55:44.803Z,101256.75
2023-03-28T19:01:03.922Z,101267.88
2023-03-28T19:06:36.989Z,101230.38
2023-03-28T19:18:56.516Z,101271.88
2023-03-28T19:24:18.655Z,101500.78
2023-03-28T19:30:11.382Z,101578.28
2023-03-28T19:35:28.170Z,101592.06
2023-03-28T19:47:24.264Z,101554.16
2023-03-28T19:52:36.160Z,101336.28
2023-03-28T19:57:49.683Z,101562.84
2023-03-28T20:03:52.210Z,101766.66
2023-03-28T20:09:27.799Z,101461.38
2023-03-28T20:14:33.562Z,101757.06
2023-03-28T20:19:41.600Z,101749.38
2023-03-28T20:24:48.850Z,101334.47
2023-03-28T20:30:01.519Z,101736.41
2023-03-28T20:35:07.777Z,101683.16
2023-03-28T20:40:11.770Z,101733.94
2023-03-28T20:45:22.291Z,101645.78
2023-03-28T20:50:36.563Z,101537.78
2023-03-28T20:55:43.372Z,101740.91
2023-03-28T21:00:53.632Z,101697.06
2023-03-28T21:06:02.115Z,101592.16
2023-03-28T21:11:09.211Z,101356.25
2023-03-28T21:16:14.767Z,101342.03
2023-03-28T21:21:20.623Z,101595.19
2023-03-28T21:26:25.452Z,101643.06
2023-03-28T21:31:29.933Z,101594.06
2023-03-28T21:36:34.789Z,101610.88
2023-03-28T21:41:45.443Z,101603.16
2023-03-28T21:46:48.166Z,101635.81
2023-03-28T21:51:59.757Z,101638.34
2023-03-28T21:57:06.974Z,101602.41
2023-03-28T22:02:09.813Z,101632.31
2023-03-28T22:07:17.428Z,101581.97
2023-03-28T22:12:28.758Z,101573.63
2023-03-28T22:17:34.848Z,101558.94
2023-03-28T22:22:42.513Z,101615.25
2023-03-28T22:27:46.430Z,101563.59
2023-03-28T22:32:49.877Z,101564.44
2023-03-28T22:37:55.360Z,101594.41
2023-03-28T22:42:58.073Z,101579.44
2023-03-28T22:48:03.119Z,101559.16
2023-03-28T22:53:07.475Z,101570.06
2023-03-28T22:58:12.533Z,101565.72
2023-03-28T23:03:16.809Z,101518.38
2023-03-28T23:08:21.042Z,101541.72
2023-03-28T23:13:23.750Z,101525.63
2023-03-28T23:18:26.551Z,101453.47
2023-03-28T23:23:32.154Z,101520.66
2023-03-28T23:28:38.119Z,101416.00
2023-03-28T23:33:40.879Z,101439.53
2023-03-28T23:38:44.950Z,101481.81
2023-03-28T23:43:47.587Z,101489.19
2023-03-28T23:48:50.578Z,101472.84
2023-03-28T23:53:54.576Z,101470.56
2023-03-28T23:58:57.296Z,101445.69
